Time;durP1;ratioP1;P1;durP2;ratioP2;P2;SDS_P1;SDS_P2;PMS_P1;PMS_P2;Temp;Humidity;BMP_temperature;BMP_pressure;BME280_temperature;BME280_humidity;BME280_pressure;Samples;Min_cycle;Max_cycle;Signal;HPM_P1;HPM_P2
2022/04/15 00:01:31;;;;;;;15.23;10.82;;;;;;;;;;4965376;28;20279;-60
2022/04/15 00:03:56;;;;;;;19.77;12.32;;;;;;;;;;4982838;28;20680;-60
2022/04/15 00:06:24;;;;;;;20.63;11.20;;;;;;;;;;4976918;28;20275;-60
2022/04/15 00:08:49;;;;;;;21.58;12.20;;;;;;;;;;4975399;28;20224;-60
2022/04/15 00:11:15;;;;;;;20.10;13.25;;;;;;;;;;4974117;28;20202;-60
2022/04/15 00:13:41;;;;;;;17.88;12.27;;;;;;;;;;4970354;28;20220;-60
2022/04/15 00:16:06;;;;;;;20.30;13.77;;;;;;;;;;4965405;28;20567;-60
2022/04/15 00:18:32;;;;;;;18.90;12.18;;;;;;;;;;4965777;28;20221;-60
2022/04/15 00:20:57;;;;;;;16.58;12.00;;;;;;;;;;4966090;28;20736;-60
2022/04/15 00:23:22;;;;;;;17.75;11.90;;;;;;;;;;4983481;28;20198;-60
2022/04/15 00:25:48;;;;;;;21.45;13.95;;;;;;;;;;4985004;28;20236;-60
2022/04/15 00:28:13;;;;;;;18.52;12.45;;;;;;;;;;4965522;28;20225;-60
2022/04/15 00:30:38;;;;;;;18.63;12.00;;;;;;;;;;4957504;28;20613;-60
2022/04/15 00:33:04;;;;;;;17.58;12.38;;;;;;;;;;4957610;28;20249;-60
2022/04/15 00:35:29;;;;;;;18.60;12.30;;;;;;;;;;4962414;28;20740;-60
2022/04/15 00:37:54;;;;;;;19.10;11.93;;;;;;;;;;4965148;28;20760;-60
2022/04/15 00:40:20;;;;;;;18.92;13.38;;;;;;;;;;4965078;28;20217;-60
2022/04/15 00:42:45;;;;;;;19.55;12.32;;;;;;;;;;4965294;28;20230;-60
2022/04/15 00:45:10;;;;;;;15.98;12.15;;;;;;;;;;4964828;28;20643;-60
2022/04/15 00:47:40;;;;;;;18.35;12.82;;;;;;;;;;4982649;28;20738;-60
2022/04/15 00:50:06;;;;;;;18.15;12.32;;;;;;;;;;4980389;28;20209;-60
2022/04/15 00:52:33;;;;;;;19.80;12.77;;;;;;;;;;4976537;28;20267;-60
2022/04/15 00:54:59;;;;;;;18.77;13.77;;;;;;;;;;4974860;28;20959;-60
2022/04/15 00:57:25;;;;;;;21.00;14.40;;;;;;;;;;4976978;28;20673;-60
2022/04/15 00:59:51;;;;;;;21.48;14.68;;;;;;;;;;4983927;28;20217;-60
2022/04/15 01:02:17;;;;;;;18.52;13.18;;;;;;;;;;4968859;28;20224;-60
2022/04/15 01:04:43;;;;;;;20.55;13.70;;;;;;;;;;4983016;28;20275;-60
2022/04/15 01:07:08;;;;;;;22.02;14.48;;;;;;;;;;4982505;28;20221;-60
2022/04/15 01:09:33;;;;;;;18.58;12.30;;;;;;;;;;4983416;28;20641;-60
2022/04/15 01:11:59;;;;;;;22.65;13.82;;;;;;;;;;4973308;28;20349;-61
2022/04/15 01:14:24;;;;;;;16.95;11.57;;;;;;;;;;4974163;28;20204;-60
2022/04/15 01:16:49;;;;;;;17.95;12.15;;;;;;;;;;4975703;28;20296;-60
2022/04/15 01:19:14;;;;;;;17.48;12.13;;;;;;;;;;4976064;28;20237;-60
2022/04/15 01:21:40;;;;;;;18.38;12.23;;;;;;;;;;4983387;28;20224;-60
2022/04/15 01:24:05;;;;;;;22.10;15.35;;;;;;;;;;4983713;28;20213;-60
2022/04/15 01:26:30;;;;;;;24.13;17.73;;;;;;;;;;4983111;28;20213;-60
2022/04/15 01:28:57;;;;;;;29.77;18.08;;;;;;;;;;4966041;28;20236;-60
2022/04/15 01:31:22;;;;;;;23.15;16.90;;;;;;;;;;4963583;28;20213;-60
2022/04/15 01:33:47;;;;;;;31.02;19.80;;;;;;;;;;4964806;28;20236;-60
2022/04/15 01:36:14;;;;;;;28.27;19.73;;;;;;;;;;4958792;28;20331;-60
2022/04/15 01:38:39;;;;;;;26.10;18.60;;;;;;;;;;4955615;28;20325;-60
2022/04/15 01:41:04;;;;;;;27.30;19.13;;;;;;;;;;4956823;28;20706;-60
2022/04/15 01:43:29;;;;;;;31.58;20.20;;;;;;;;;;4961475;28;20213;-60
2022/04/15 01:45:55;;;;;;;32.72;19.92;;;;;;;;;;4963732;28;20260;-60
2022/04/15 01:48:20;;;;;;;24.75;18.45;;;;;;;;;;4964122;28;20225;-60
2022/04/15 01:50:46;;;;;;;25.45;18.15;;;;;;;;;;4963545;28;20245;-60
2022/04/15 01:53:11;;;;;;;28.02;17.85;;;;;;;;;;4982375;28;20259;-60
2022/04/15 01:55:37;;;;;;;25.90;18.75;;;;;;;;;;4983770;28;20225;-60
2022/04/15 01:58:02;;;;;;;23.05;17.33;;;;;;;;;;4973201;28;20705;-60
2022/04/15 02:00:27;;;;;;;24.23;15.65;;;;;;;;;;4955996;28;20541;-60
2022/04/15 02:02:52;;;;;;;24.92;16.13;;;;;;;;;;4955938;28;20223;-60
2022/04/15 02:05:18;;;;;;;25.73;15.27;;;;;;;;;;4958128;28;20233;-60
2022/04/15 02:07:43;;;;;;;18.98;15.07;;;;;;;;;;4963601;28;20504;-60
2022/04/15 02:10:08;;;;;;;24.73;16.05;;;;;;;;;;4963460;28;20217;-60
2022/04/15 02:12:34;;;;;;;19.48;14.90;;;;;;;;;;4967718;28;20217;-60
2022/04/15 02:14:59;;;;;;;20.45;15.98;;;;;;;;;;4963471;28;20304;-60
2022/04/15 02:17:24;;;;;;;23.33;16.00;;;;;;;;;;4963969;28;20217;-60
2022/04/15 02:19:52;;;;;;;24.02;17.15;;;;;;;;;;4963893;28;20213;-60
2022/04/15 02:22:17;;;;;;;22.17;16.23;;;;;;;;;;4974414;28;20295;-60
2022/04/15 02:24:42;;;;;;;27.02;17.33;;;;;;;;;;4975184;28;20223;-60
2022/04/15 02:27:08;;;;;;;25.83;18.75;;;;;;;;;;4971360;28;20693;-60
2022/04/15 02:29:34;;;;;;;24.50;17.80;;;;;;;;;;4980622;28;20244;-60
2022/04/15 02:32:00;;;;;;;26.73;17.92;;;;;;;;;;4982919;28;20297;-60
2022/04/15 02:34:25;;;;;;;25.15;17.25;;;;;;;;;;4983069;28;20647;-60
2022/04/15 02:36:50;;;;;;;23.83;17.05;;;;;;;;;;4982069;28;20216;-60
2022/04/15 02:39:16;;;;;;;26.92;18.65;;;;;;;;;;4982885;28;20300;-60
2022/04/15 02:41:41;;;;;;;25.25;17.60;;;;;;;;;;4982350;28;20213;-60
2022/04/15 02:44:07;;;;;;;27.35;18.30;;;;;;;;;;4976674;28;20260;-60
2022/04/15 02:46:32;;;;;;;29.40;18.35;;;;;;;;;;4974736;28;20432;-60
2022/04/15 02:48:58;;;;;;;24.13;17.10;;;;;;;;;;4974428;28;20217;-60
2022/04/15 02:51:23;;;;;;;28.42;17.38;;;;;;;;;;4979111;28;20727;-60
2022/04/15 02:53:48;;;;;;;22.25;16.02;;;;;;;;;;4982489;28;20212;-60
2022/04/15 02:56:13;;;;;;;26.70;16.95;;;;;;;;;;4981747;28;20233;-60
2022/04/15 02:58:39;;;;;;;29.52;17.20;;;;;;;;;;4970680;28;20205;-60
2022/04/15 03:01:04;;;;;;;21.77;15.43;;;;;;;;;;4964324;28;20625;-60
2022/04/15 03:03:29;;;;;;;21.40;14.77;;;;;;;;;;4966687;28;20676;-60
2022/04/15 03:05:56;;;;;;;22.90;14.30;;;;;;;;;;4965316;28;20291;-60
2022/04/15 03:08:21;;;;;;;18.83;14.00;;;;;;;;;;4959214;28;20241;-60
2022/04/15 03:10:47;;;;;;;18.35;14.10;;;;;;;;;;4977922;28;20324;-60
2022/04/15 03:13:12;;;;;;;20.45;14.30;;;;;;;;;;4960934;28;20665;-60
2022/04/15 03:15:37;;;;;;;22.60;14.52;;;;;;;;;;4967261;28;20392;-60
2022/04/15 03:18:03;;;;;;;19.38;13.35;;;;;;;;;;4965849;28;20576;-60
2022/04/15 03:20:28;;;;;;;20.48;13.65;;;;;;;;;;4967108;28;20264;-60
2022/04/15 03:22:54;;;;;;;20.90;13.95;;;;;;;;;;4985566;28;20245;-60
2022/04/15 03:25:19;;;;;;;19.27;14.00;;;;;;;;;;4984676;28;20221;-60
2022/04/15 03:27:44;;;;;;;20.67;13.70;;;;;;;;;;4977120;28;20228;-60
2022/04/15 03:30:11;;;;;;;18.80;13.30;;;;;;;;;;4959654;28;20573;-60
2022/04/15 03:32:53;;;;;;;19.42;13.00;;;;;;;;;;4977215;28;20224;-60
2022/04/15 03:35:20;;;;;;;21.15;13.10;;;;;;;;;;4978527;28;20309;-60
2022/04/15 03:37:47;;;;;;;18.90;13.07;;;;;;;;;;4985207;28;20613;-60
2022/04/15 03:40:12;;;;;;;17.77;12.57;;;;;;;;;;4984766;28;20715;-60
2022/04/15 03:42:44;;;;;;;16.25;11.32;;;;;;;;;;4985877;28;20248;-60
2022/04/15 03:45:11;;;;;;;18.42;11.27;;;;;;;;;;4984590;28;20276;-60
2022/04/15 03:47:36;;;;;;;14.88;10.90;;;;;;;;;;4985872;28;20223;-60
2022/04/15 03:50:02;;;;;;;19.08;11.10;;;;;;;;;;4985427;28;20221;-60
2022/04/15 03:52:27;;;;;;;16.88;10.15;;;;;;;;;;4979624;28;20531;-60
2022/04/15 03:54:53;;;;;;;17.80;10.85;;;;;;;;;;4977411;28;20263;-60
2022/04/15 03:57:18;;;;;;;17.75;10.73;;;;;;;;;;4976600;28;20672;-60
2022/04/15 03:59:44;;;;;;;15.82;10.15;;;;;;;;;;4963345;28;20730;-60
2022/04/15 04:02:09;;;;;;;16.98;9.93;;;;;;;;;;4965930;28;20209;-60
2022/04/15 04:04:35;;;;;;;19.83;10.35;;;;;;;;;;4966621;28;20228;-60
2022/04/15 04:07:00;;;;;;;17.67;10.35;;;;;;;;;;4965133;28;20222;-61
2022/04/15 04:09:25;;;;;;;15.10;9.65;;;;;;;;;;4966462;28;20221;-60
2022/04/15 04:11:51;;;;;;;14.02;10.27;;;;;;;;;;4966312;28;20748;-60
2022/04/15 04:14:16;;;;;;;13.90;10.05;;;;;;;;;;4961397;28;20252;-60
2022/04/15 04:16:41;;;;;;;14.20;9.88;;;;;;;;;;4958234;28;20226;-60
2022/04/15 04:19:06;;;;;;;13.82;9.45;;;;;;;;;;4958164;28;20348;-61
2022/04/15 04:21:33;;;;;;;15.13;8.80;;;;;;;;;;4960345;28;20224;-60
2022/04/15 04:23:58;;;;;;;16.63;9.48;;;;;;;;;;4984361;28;20715;-60
2022/04/15 04:26:24;;;;;;;13.77;9.32;;;;;;;;;;4985228;28;20237;-61
2022/04/15 04:28:49;;;;;;;16.98;9.85;;;;;;;;;;4966653;28;20225;-60
2022/04/15 04:31:14;;;;;;;12.07;9.25;;;;;;;;;;4965733;28;20256;-61
2022/04/15 04:33:40;;;;;;;13.07;9.27;;;;;;;;;;4965722;28;20206;-60
2022/04/15 04:36:05;;;;;;;14.27;8.93;;;;;;;;;;4983647;28;20712;-60
2022/04/15 04:38:31;;;;;;;15.45;9.38;;;;;;;;;;4977009;28;20202;-60
2022/04/15 04:40:56;;;;;;;13.40;8.75;;;;;;;;;;4976940;28;20714;-61
2022/04/15 04:43:22;;;;;;;13.48;8.80;;;;;;;;;;4991693;28;20300;-60
2022/04/15 04:45:48;;;;;;;12.40;8.63;;;;;;;;;;4998720;28;20423;-61
2022/04/15 04:48:13;;;;;;;15.05;8.93;;;;;;;;;;4984207;28;20557;-60
2022/04/15 04:50:38;;;;;;;15.02;8.18;;;;;;;;;;4984057;28;20228;-60
2022/04/15 04:53:03;;;;;;;13.98;8.57;;;;;;;;;;4984122;28;20749;-61
2022/04/15 04:55:29;;;;;;;14.73;8.68;;;;;;;;;;4983485;28;20264;-60
2022/04/15 04:57:54;;;;;;;13.32;8.73;;;;;;;;;;4978905;28;20228;-60
2022/04/15 05:00:19;;;;;;;11.40;8.13;;;;;;;;;;4960358;28;20562;-60
2022/04/15 05:02:45;;;;;;;15.18;8.57;;;;;;;;;;4957284;28;20843;-60
2022/04/15 05:05:10;;;;;;;14.05;8.48;;;;;;;;;;4957145;28;20760;-60
2022/04/15 05:07:35;;;;;;;12.13;8.30;;;;;;;;;;4962128;28;20217;-60
2022/04/15 05:10:01;;;;;;;11.05;7.65;;;;;;;;;;4963750;28;20224;-61
2022/04/15 05:12:26;;;;;;;10.85;8.75;;;;;;;;;;4965628;28;20286;-60
2022/04/15 05:14:51;;;;;;;11.93;8.30;;;;;;;;;;4964923;28;20614;-60
2022/04/15 05:17:16;;;;;;;10.32;7.90;;;;;;;;;;4964361;28;20253;-60
2022/04/15 05:19:42;;;;;;;12.38;7.38;;;;;;;;;;4964981;28;20222;-60
2022/04/15 05:22:08;;;;;;;10.20;7.68;;;;;;;;;;4963156;28;20730;-61
2022/04/15 05:24:33;;;;;;;11.95;7.13;;;;;;;;;;4955985;28;20321;-60
2022/04/15 05:26:58;;;;;;;12.50;7.40;;;;;;;;;;4959296;28;20317;-60
2022/04/15 05:29:24;;;;;;;10.02;6.88;;;;;;;;;;4977127;28;20584;-60
2022/04/15 05:31:49;;;;;;;9.98;6.82;;;;;;;;;;4983525;28;20394;-60
2022/04/15 05:34:14;;;;;;;12.32;7.10;;;;;;;;;;4983416;28;20681;-60
2022/04/15 05:36:40;;;;;;;10.05;7.30;;;;;;;;;;4983690;28;20216;-60
2022/04/15 05:39:05;;;;;;;10.15;6.88;;;;;;;;;;4982447;28;20260;-60
2022/04/15 05:41:30;;;;;;;10.30;6.55;;;;;;;;;;4983628;28;20213;-61
2022/04/15 05:43:58;;;;;;;10.93;6.45;;;;;;;;;;4983897;28;20213;-60
2022/04/15 05:46:24;;;;;;;8.98;7.15;;;;;;;;;;4976140;28;20888;-60
2022/04/15 05:48:49;;;;;;;10.07;5.95;;;;;;;;;;4990184;28;20740;-61
2022/04/15 05:51:14;;;;;;;10.25;5.88;;;;;;;;;;4976087;28;20217;-61
2022/04/15 05:53:39;;;;;;;11.68;6.25;;;;;;;;;;4981383;28;20232;-61
2022/04/15 05:56:05;;;;;;;11.77;5.05;;;;;;;;;;4983099;28;20229;-61
2022/04/15 05:58:30;;;;;;;10.20;5.63;;;;;;;;;;4972701;28;20251;-61
2022/04/15 06:00:56;;;;;;;9.88;5.60;;;;;;;;;;4964061;28;20221;-60
2022/04/15 06:03:21;;;;;;;8.13;4.47;;;;;;;;;;4978490;28;21094;-59
2022/04/15 06:05:47;;;;;;;9.00;4.45;;;;;;;;;;4963814;28;20727;-60
2022/04/15 06:08:12;;;;;;;8.68;4.38;;;;;;;;;;4978817;28;20378;-61
2022/04/15 06:10:38;;;;;;;9.32;4.22;;;;;;;;;;4975553;28;20220;-61
2022/04/15 06:13:06;;;;;;;8.18;3.67;;;;;;;;;;4956775;28;20245;-61
2022/04/15 06:15:32;;;;;;;7.80;4.20;;;;;;;;;;4979102;28;20691;-62
2022/04/15 06:17:58;;;;;;;8.98;3.80;;;;;;;;;;4982413;28;20644;-61
2022/04/15 06:20:23;;;;;;;6.97;3.80;;;;;;;;;;4981867;28;20692;-61
2022/04/15 06:22:49;;;;;;;8.95;3.80;;;;;;;;;;4983334;28;20227;-61
2022/04/15 06:25:14;;;;;;;6.60;3.30;;;;;;;;;;4982614;28;20786;-61
2022/04/15 06:27:39;;;;;;;7.65;4.10;;;;;;;;;;4974340;28;20211;-61
2022/04/15 06:30:07;;;;;;;6.78;3.90;;;;;;;;;;4962247;28;20585;-61
2022/04/15 06:32:32;;;;;;;7.07;3.10;;;;;;;;;;4971677;28;20221;-61
2022/04/15 06:34:58;;;;;;;5.95;3.60;;;;;;;;;;4956637;28;20213;-60
2022/04/15 06:37:23;;;;;;;7.40;3.60;;;;;;;;;;4961414;28;20208;-61
2022/04/15 06:39:50;;;;;;;5.05;3.25;;;;;;;;;;4968444;28;20206;-61
2022/04/15 06:42:22;;;;;;;5.40;3.45;;;;;;;;;;4967349;28;20213;-63
2022/04/15 06:44:47;;;;;;;5.63;3.55;;;;;;;;;;5002263;28;20247;-64
2022/04/15 06:47:13;;;;;;;5.70;3.67;;;;;;;;;;4986782;28;20680;-64
2022/04/15 06:49:38;;;;;;;6.55;3.33;;;;;;;;;;4994980;28;20224;-62
2022/04/15 06:52:03;;;;;;;6.03;3.35;;;;;;;;;;5013102;28;20216;-64
2022/04/15 06:54:29;;;;;;;7.35;3.83;;;;;;;;;;5016127;28;20221;-62
2022/04/15 06:56:54;;;;;;;8.52;3.78;;;;;;;;;;5015986;28;20239;-61
2022/04/15 06:59:19;;;;;;;7.20;4.78;;;;;;;;;;4998274;28;20241;-61
2022/04/15 07:01:46;;;;;;;6.72;3.85;;;;;;;;;;4996027;28;20569;-62
2022/04/15 07:04:11;;;;;;;8.45;4.07;;;;;;;;;;4995093;28;20211;-61
2022/04/15 07:06:37;;;;;;;6.35;3.40;;;;;;;;;;4994482;28;20225;-61
2022/04/15 07:09:02;;;;;;;7.25;3.42;;;;;;;;;;4995703;28;20307;-62
2022/04/15 07:11:27;;;;;;;7.30;3.72;;;;;;;;;;5000274;28;20672;-62
2022/04/15 07:13:53;;;;;;;7.68;4.05;;;;;;;;;;4999068;28;20209;-61
2022/04/15 07:16:18;;;;;;;7.57;4.10;;;;;;;;;;4994986;28;20221;-61
2022/04/15 07:18:43;;;;;;;6.57;3.88;;;;;;;;;;4995515;28;20289;-62
2022/04/15 07:21:09;;;;;;;6.15;4.03;;;;;;;;;;4996225;28;20209;-62
2022/04/15 07:23:34;;;;;;;6.35;2.60;;;;;;;;;;4995623;28;20224;-61
2022/04/15 07:26:00;;;;;;;7.03;4.05;;;;;;;;;;4996028;28;20221;-62
2022/04/15 07:28:25;;;;;;;7.72;3.70;;;;;;;;;;4994905;28;20304;-62
2022/04/15 07:30:50;;;;;;;6.28;3.55;;;;;;;;;;4995007;28;20680;-62
2022/04/15 07:33:17;;;;;;;5.55;3.60;;;;;;;;;;4995335;28;20232;-62
2022/04/15 07:35:42;;;;;;;6.57;3.17;;;;;;;;;;4976946;28;20214;-61
2022/04/15 07:38:08;;;;;;;7.60;2.85;;;;;;;;;;4993800;28;20216;-60
2022/04/15 07:40:33;;;;;;;4.05;2.50;;;;;;;;;;4995332;28;20559;-60
2022/04/15 07:42:58;;;;;;;6.28;3.15;;;;;;;;;;4995478;28;20216;-61
2022/04/15 07:45:24;;;;;;;6.15;3.20;;;;;;;;;;4994592;28;20309;-63
2022/04/15 07:47:49;;;;;;;7.22;3.60;;;;;;;;;;4995836;28;20291;-61
2022/04/15 07:50:14;;;;;;;5.45;3.03;;;;;;;;;;4995026;28;20221;-61
2022/04/15 07:52:40;;;;;;;5.15;3.05;;;;;;;;;;4994917;28;20287;-60
2022/04/15 07:55:06;;;;;;;4.70;2.90;;;;;;;;;;4994203;28;20217;-61
2022/04/15 07:57:31;;;;;;;8.38;3.40;;;;;;;;;;4995626;28;20220;-61
2022/04/15 07:59:56;;;;;;;9.43;4.30;;;;;;;;;;4994036;28;20214;-62
2022/04/15 08:02:22;;;;;;;9.68;4.43;;;;;;;;;;4993589;28;20220;-62
2022/04/15 08:04:47;;;;;;;7.25;4.20;;;;;;;;;;4993424;28;20225;-62
2022/04/15 08:07:12;;;;;;;7.45;3.70;;;;;;;;;;4992203;28;20704;-62
2022/04/15 08:09:39;;;;;;;9.98;4.00;;;;;;;;;;4993603;28;20237;-62
2022/04/15 08:12:05;;;;;;;6.82;3.90;;;;;;;;;;4992940;28;20267;-62
2022/04/15 08:14:30;;;;;;;8.30;3.90;;;;;;;;;;4992640;28;20324;-62
2022/04/15 08:16:55;;;;;;;7.20;4.15;;;;;;;;;;4993142;28;20748;-62
2022/04/15 08:19:21;;;;;;;11.07;3.63;;;;;;;;;;4992154;28;20209;-62
2022/04/15 08:21:46;;;;;;;5.70;3.90;;;;;;;;;;4993165;28;20207;-62
2022/04/15 08:24:11;;;;;;;8.32;4.63;;;;;;;;;;4992810;28;20267;-62
2022/04/15 08:26:37;;;;;;;8.85;4.90;;;;;;;;;;4992472;28;20295;-61
2022/04/15 08:29:02;;;;;;;10.45;5.20;;;;;;;;;;4992597;28;20693;-62
2022/04/15 08:31:27;;;;;;;7.05;4.35;;;;;;;;;;4992936;28;20217;-62
2022/04/15 08:33:53;;;;;;;8.63;4.57;;;;;;;;;;4992401;28;20279;-62
2022/04/15 08:36:18;;;;;;;8.80;4.63;;;;;;;;;;4992473;28;20213;-62
2022/04/15 08:38:43;;;;;;;7.68;4.68;;;;;;;;;;4993034;28;20287;-62
2022/04/15 08:41:09;;;;;;;6.60;4.45;;;;;;;;;;4991624;28;20296;-61
2022/04/15 08:43:34;;;;;;;8.35;4.80;;;;;;;;;;4991540;28;20224;-62
2022/04/15 08:46:02;;;;;;;8.75;5.47;;;;;;;;;;4991095;28;20688;-61
2022/04/15 08:48:27;;;;;;;7.88;4.75;;;;;;;;;;4991762;28;20209;-61
2022/04/15 08:50:52;;;;;;;10.02;4.80;;;;;;;;;;4992604;28;20272;-62
2022/04/15 08:53:18;;;;;;;10.43;5.30;;;;;;;;;;4992234;28;20684;-62
2022/04/15 08:55:44;;;;;;;8.20;4.88;;;;;;;;;;4991635;28;20304;-62
2022/04/15 08:58:09;;;;;;;11.10;5.10;;;;;;;;;;4992049;28;20695;-62
2022/04/15 09:00:34;;;;;;;8.88;4.60;;;;;;;;;;4991590;28;20239;-61
2022/04/15 09:03:00;;;;;;;9.13;4.95;;;;;;;;;;4991828;28;20588;-61
2022/04/15 09:05:26;;;;;;;9.07;5.05;;;;;;;;;;4991995;28;20233;-62
2022/04/15 09:08:04;;;;;;;9.02;5.40;;;;;;;;;;4992189;28;20213;-62
2022/04/15 09:10:30;;;;;;;7.35;4.53;;;;;;;;;;4990033;28;20684;-62
2022/04/15 09:12:55;;;;;;;8.27;5.00;;;;;;;;;;4990945;28;20300;-62
2022/04/15 09:15:20;;;;;;;9.35;5.55;;;;;;;;;;4991624;28;20337;-61
2022/04/15 09:17:49;;;;;;;10.10;5.90;;;;;;;;;;4991238;28;20292;-62
2022/04/15 09:20:14;;;;;;;9.85;5.97;;;;;;;;;;4991725;28;20292;-62
2022/04/15 09:22:40;;;;;;;10.98;6.30;;;;;;;;;;4991331;28;20800;-62
2022/04/15 09:25:06;;;;;;;9.02;5.63;;;;;;;;;;4991669;28;20225;-62
2022/04/15 09:27:32;;;;;;;10.80;6.25;;;;;;;;;;4990773;28;20217;-61
2022/04/15 09:29:57;;;;;;;9.40;6.43;;;;;;;;;;4991120;28;20682;-61
2022/04/15 09:32:24;;;;;;;10.15;7.07;;;;;;;;;;4991310;28;20584;-61
2022/04/15 09:34:53;;;;;;;10.35;6.75;;;;;;;;;;4991929;28;20710;-61
2022/04/15 09:37:19;;;;;;;12.05;7.05;;;;;;;;;;4990412;28;20217;-61
2022/04/15 09:40:01;;;;;;;12.52;7.28;;;;;;;;;;4991806;28;20458;-61
2022/04/15 09:42:27;;;;;;;10.68;6.95;;;;;;;;;;4991354;28;20215;-61
2022/04/15 09:44:52;;;;;;;12.38;7.10;;;;;;;;;;4990869;28;20225;-61
2022/04/15 09:47:17;;;;;;;11.05;6.55;;;;;;;;;;4990864;28;20213;-61
2022/04/15 09:49:43;;;;;;;11.10;6.38;;;;;;;;;;4991617;28;20489;-61
2022/04/15 09:52:09;;;;;;;11.23;7.53;;;;;;;;;;4990631;28;20220;-61
2022/04/15 09:54:34;;;;;;;12.38;7.03;;;;;;;;;;4991712;28;20583;-61
2022/04/15 09:56:59;;;;;;;10.68;6.88;;;;;;;;;;4990171;28;20213;-61
2022/04/15 09:59:25;;;;;;;11.60;7.55;;;;;;;;;;4990257;28;20668;-62
2022/04/15 10:01:53;;;;;;;10.40;7.07;;;;;;;;;;4990978;28;20205;-61
2022/04/15 10:04:18;;;;;;;14.38;7.38;;;;;;;;;;4989728;28;20209;-62
2022/04/15 10:06:44;;;;;;;10.75;6.97;;;;;;;;;;4990496;28;20228;-62
2022/04/15 10:09:10;;;;;;;11.75;7.30;;;;;;;;;;4989567;28;20317;-62
2022/04/15 10:11:35;;;;;;;10.98;6.90;;;;;;;;;;4990518;28;20213;-62
2022/04/15 10:14:01;;;;;;;9.95;6.85;;;;;;;;;;4989941;28;20217;-61
2022/04/15 10:16:26;;;;;;;9.60;6.32;;;;;;;;;;4991021;28;20622;-62
2022/04/15 10:18:52;;;;;;;10.00;6.78;;;;;;;;;;4990264;28;20267;-61
2022/04/15 10:21:17;;;;;;;12.05;7.35;;;;;;;;;;4990692;28;20216;-61
2022/04/15 10:23:42;;;;;;;11.13;6.40;;;;;;;;;;4989800;28;20252;-62
2022/04/15 10:26:08;;;;;;;11.52;6.68;;;;;;;;;;4989826;28;20601;-61
2022/04/15 10:28:42;;;;;;;10.40;6.72;;;;;;;;;;4990879;28;20216;-61
2022/04/15 10:31:11;;;;;;;13.30;6.97;;;;;;;;;;4990430;28;20209;-61
2022/04/15 10:33:36;;;;;;;8.85;6.70;;;;;;;;;;4990034;28;20213;-61
2022/04/15 10:36:11;;;;;;;11.52;7.20;;;;;;;;;;4989306;28;20231;-62
2022/04/15 10:38:37;;;;;;;12.38;6.90;;;;;;;;;;4990723;28;20683;-61
2022/04/15 10:41:13;;;;;;;11.18;7.35;;;;;;;;;;4989974;28;20217;-61
2022/04/15 10:43:38;;;;;;;9.50;6.95;;;;;;;;;;4990836;28;20303;-61
2022/04/15 10:46:13;;;;;;;11.25;6.90;;;;;;;;;;4988989;28;20313;-61
2022/04/15 10:48:39;;;;;;;9.32;6.53;;;;;;;;;;4989890;28;20208;-61
2022/04/15 10:51:12;;;;;;;10.13;7.10;;;;;;;;;;4990652;28;20221;-62
2022/04/15 10:53:38;;;;;;;11.45;6.85;;;;;;;;;;4989550;28;20288;-61
2022/04/15 10:56:05;;;;;;;10.40;6.75;;;;;;;;;;4989978;28;20386;-61
2022/04/15 10:58:30;;;;;;;10.50;6.63;;;;;;;;;;4990628;28;20349;-61
2022/04/15 11:01:14;;;;;;;8.82;6.25;;;;;;;;;;4990630;28;20303;-61
2022/04/15 11:03:39;;;;;;;8.65;6.03;;;;;;;;;;4990339;28;20213;-61
2022/04/15 11:06:06;;;;;;;10.68;6.10;;;;;;;;;;4990427;28;20589;-62
2022/04/15 11:08:43;;;;;;;11.63;6.00;;;;;;;;;;4988745;28;20205;-61
2022/04/15 11:11:09;;;;;;;8.23;5.53;;;;;;;;;;4990414;28;20220;-61
2022/04/15 11:13:39;;;;;;;8.70;5.90;;;;;;;;;;4989483;28;20209;-62
2022/04/15 11:16:06;;;;;;;9.73;6.45;;;;;;;;;;4989684;28;20452;-61
2022/04/15 11:18:50;;;;;;;9.63;6.57;;;;;;;;;;4990157;28;20205;-61
2022/04/15 11:21:19;;;;;;;9.32;6.40;;;;;;;;;;4990348;28;20225;-62
2022/04/15 11:23:46;;;;;;;8.27;6.05;;;;;;;;;;4991940;28;20284;-62
2022/04/15 11:26:11;;;;;;;8.80;6.40;;;;;;;;;;4993965;28;20236;-62
2022/04/15 11:28:36;;;;;;;10.60;7.00;;;;;;;;;;4992777;28;20213;-62
2022/04/15 11:31:01;;;;;;;8.73;6.45;;;;;;;;;;4993361;28;20217;-62
2022/04/15 11:33:27;;;;;;;8.15;6.05;;;;;;;;;;4993783;28;20213;-62
2022/04/15 11:35:52;;;;;;;9.20;5.88;;;;;;;;;;4994264;28;20301;-62
2022/04/15 11:38:17;;;;;;;9.57;6.30;;;;;;;;;;4992882;28;20217;-62
2022/04/15 11:40:44;;;;;;;9.63;5.93;;;;;;;;;;4992810;28;20351;-62
2022/04/15 11:43:10;;;;;;;9.82;6.40;;;;;;;;;;4993701;28;20209;-62
2022/04/15 11:45:36;;;;;;;9.27;6.97;;;;;;;;;;4993145;28;20589;-62
2022/04/15 11:48:15;;;;;;;9.68;6.88;;;;;;;;;;4993339;28;20215;-62
2022/04/15 11:50:41;;;;;;;10.25;7.63;;;;;;;;;;4993053;28;20213;-62
2022/04/15 11:53:06;;;;;;;9.95;6.95;;;;;;;;;;4993379;28;20216;-62
2022/04/15 11:55:33;;;;;;;9.98;6.65;;;;;;;;;;4993539;28;20629;-62
2022/04/15 11:57:59;;;;;;;8.63;6.57;;;;;;;;;;4993052;28;20213;-62
2022/04/15 12:00:25;;;;;;;8.60;6.80;;;;;;;;;;4992975;28;20217;-62
2022/04/15 12:02:58;;;;;;;10.18;6.60;;;;;;;;;;4993691;28;20727;-62
2022/04/15 12:05:23;;;;;;;9.60;6.65;;;;;;;;;;4992202;28;20232;-62
2022/04/15 12:07:50;;;;;;;9.32;6.53;;;;;;;;;;4992249;28;20209;-62
2022/04/15 12:10:15;;;;;;;9.05;5.85;;;;;;;;;;4992962;28;20617;-62
2022/04/15 12:12:42;;;;;;;10.73;7.15;;;;;;;;;;4992790;28;20205;-62
2022/04/15 12:15:08;;;;;;;10.02;7.40;;;;;;;;;;4993112;28;20209;-62
2022/04/15 12:17:33;;;;;;;9.60;7.07;;;;;;;;;;4993174;28;20304;-62
2022/04/15 12:19:58;;;;;;;9.07;6.20;;;;;;;;;;4990943;28;20296;-62
2022/04/15 12:22:24;;;;;;;7.97;6.20;;;;;;;;;;4992985;28;20201;-62
2022/04/15 12:24:49;;;;;;;8.15;6.20;;;;;;;;;;4993113;28;20229;-62
2022/04/15 12:27:15;;;;;;;7.45;6.15;;;;;;;;;;4992263;28;20209;-62
2022/04/15 12:29:54;;;;;;;8.65;6.10;;;;;;;;;;4992945;28;20243;-62
2022/04/15 12:32:22;;;;;;;7.57;5.88;;;;;;;;;;4992768;28;20212;-62
2022/04/15 12:34:48;;;;;;;9.57;6.03;;;;;;;;;;4991161;28;20209;-62
2022/04/15 12:37:33;;;;;;;8.07;5.40;;;;;;;;;;4991367;28;20228;-62
2022/04/15 12:39:59;;;;;;;7.80;5.15;;;;;;;;;;4992071;28;20216;-62
2022/04/15 12:42:27;;;;;;;8.05;6.00;;;;;;;;;;4992448;28;20217;-62
2022/04/15 12:44:52;;;;;;;8.10;6.55;;;;;;;;;;4992702;28;20644;-62
2022/04/15 12:47:17;;;;;;;8.68;6.68;;;;;;;;;;4991767;28;20308;-62
2022/04/15 12:49:43;;;;;;;8.00;6.63;;;;;;;;;;4992576;28;20723;-62
2022/04/15 12:52:09;;;;;;;8.25;6.18;;;;;;;;;;4992315;28;20213;-62
2022/04/15 12:54:34;;;;;;;8.25;6.20;;;;;;;;;;4991677;28;20309;-62
2022/04/15 12:56:59;;;;;;;8.35;6.05;;;;;;;;;;4992849;28;20312;-62
2022/04/15 12:59:26;;;;;;;7.93;5.90;;;;;;;;;;4991848;28;20293;-62
2022/04/15 13:01:51;;;;;;;8.05;6.15;;;;;;;;;;4991885;28;20301;-62
2022/04/15 13:04:16;;;;;;;7.65;5.85;;;;;;;;;;4992009;28;20292;-62
2022/04/15 13:06:42;;;;;;;8.30;6.03;;;;;;;;;;4992386;28;20234;-62
2022/04/15 13:09:07;;;;;;;7.35;5.75;;;;;;;;;;4991226;28;20292;-62
2022/04/15 13:11:32;;;;;;;7.97;6.25;;;;;;;;;;4992363;28;20625;-62
2022/04/15 13:13:57;;;;;;;7.00;5.53;;;;;;;;;;4992471;28;20252;-62
2022/04/15 13:16:23;;;;;;;7.25;5.90;;;;;;;;;;4991028;28;20209;-62
2022/04/15 13:18:49;;;;;;;9.10;6.50;;;;;;;;;;4992163;28;20216;-61
2022/04/15 13:21:14;;;;;;;8.10;6.07;;;;;;;;;;4991388;28;20761;-62
2022/04/15 13:23:39;;;;;;;7.63;5.90;;;;;;;;;;4991586;28;20209;-61
2022/04/15 13:26:04;;;;;;;8.75;5.60;;;;;;;;;;4991562;28;20229;-61
2022/04/15 13:28:30;;;;;;;6.75;5.50;;;;;;;;;;4992124;28;20205;-61
2022/04/15 13:30:55;;;;;;;9.23;5.30;;;;;;;;;;4991291;28;20344;-62
2022/04/15 13:33:20;;;;;;;7.35;5.75;;;;;;;;;;4991653;28;20568;-62
2022/04/15 13:35:46;;;;;;;7.28;5.47;;;;;;;;;;4991599;28;20205;-61
2022/04/15 13:38:11;;;;;;;8.43;5.32;;;;;;;;;;4991158;28;20692;-62
2022/04/15 13:40:38;;;;;;;6.53;5.50;;;;;;;;;;4991779;28;20283;-61
2022/04/15 13:43:03;;;;;;;7.50;5.28;;;;;;;;;;4990793;28;20323;-61
2022/04/15 13:45:29;;;;;;;6.70;4.68;;;;;;;;;;4991645;28;20637;-61
2022/04/15 13:47:54;;;;;;;8.40;5.28;;;;;;;;;;4991792;28;20662;-61
2022/04/15 13:50:19;;;;;;;8.88;5.30;;;;;;;;;;4990392;28;20216;-61
2022/04/15 13:58:13;;;;;;;7.68;5.20;;;;;;;;;;4990439;28;20216;-61
2022/04/15 14:00:38;;;;;;;7.93;5.68;;;;;;;;;;4991301;28;20217;-60
2022/04/15 14:03:03;;;;;;;6.60;5.22;;;;;;;;;;4991070;28;20220;-61
2022/04/15 14:05:29;;;;;;;5.95;4.90;;;;;;;;;;4990109;28;20225;-60
2022/04/15 14:07:55;;;;;;;6.20;5.10;;;;;;;;;;4991293;28;20225;-61
2022/04/15 14:10:21;;;;;;;7.22;4.80;;;;;;;;;;4990912;28;20233;-61
2022/04/15 14:12:46;;;;;;;8.50;4.75;;;;;;;;;;4990619;28;20672;-61
2022/04/15 14:15:11;;;;;;;6.32;4.72;;;;;;;;;;4990894;28;20224;-61
2022/04/15 14:17:36;;;;;;;7.90;4.75;;;;;;;;;;4991403;28;20213;-61
2022/04/15 14:20:02;;;;;;;8.82;5.28;;;;;;;;;;4990073;28;20221;-61
2022/04/15 14:22:27;;;;;;;6.70;4.80;;;;;;;;;;4991086;28;20217;-61
2022/04/15 14:24:53;;;;;;;6.32;4.95;;;;;;;;;;4991511;28;20560;-61
2022/04/15 14:27:18;;;;;;;6.45;4.95;;;;;;;;;;4990134;28;20714;-61
2022/04/15 14:29:44;;;;;;;7.85;4.75;;;;;;;;;;4991243;28;20216;-61